Time;durP1;ratioP1;P1;durP2;ratioP2;P2;SDS_P1;SDS_P2;PMS_P1;PMS_P2;Temp;Humidity;BMP_temperature;BMP_pressure;BME280_temperature;BME280_humidity;BME280_pressure;Samples;Min_cycle;Max_cycle;Signal;HPM_P1;HPM_P2
2021/12/10 02:29:02;;;;;;;4.87;2.33;;;1.00;94.20;;;;;;3573177;22;20276;-88
2021/12/10 02:31:30;;;;;;;4.77;1.90;;;1.00;94.20;;;;;;5011955;28;20225;-86
2021/12/10 02:33:57;;;;;;;3.13;2.00;;;0.90;94.20;;;;;;5013229;28;20231;-86
2021/12/10 02:36:25;;;;;;;4.27;1.77;;;0.90;94.20;;;;;;5013667;28;20203;-86
2021/12/10 02:38:54;;;;;;;5.07;2.07;;;0.90;94.20;;;;;;4995481;28;20231;-86
2021/12/10 02:41:26;;;;;;;4.40;2.10;;;0.70;94.40;;;;;;5013632;28;20211;-86
2021/12/10 02:43:55;;;;;;;3.47;1.77;;;0.60;95.00;;;;;;5006485;28;20301;-88
2021/12/10 02:46:22;;;;;;;2.97;2.07;;;0.60;95.00;;;;;;5013825;28;20230;-87
2021/12/10 02:48:51;;;;;;;3.40;1.80;;;0.50;94.80;;;;;;4983573;28;20228;-87
2021/12/10 02:51:19;;;;;;;2.73;1.70;;;0.50;95.00;;;;;;5007581;28;20203;-86
2021/12/10 02:53:46;;;;;;;3.00;1.60;;;0.40;95.30;;;;;;4998367;28;20236;-85
2021/12/10 02:56:16;;;;;;;2.10;1.50;;;0.40;95.40;;;;;;4979665;28;20200;-87
2021/12/10 02:58:44;;;;;;;2.60;1.40;;;0.40;95.30;;;;;;4996302;28;20612;-87
2021/12/10 03:01:14;;;;;;;2.63;1.50;;;0.40;95.20;;;;;;4996631;28;20192;-87
2021/12/10 03:03:43;;;;;;;2.77;1.70;;;0.40;94.80;;;;;;4997460;28;20239;-86
2021/12/10 03:06:15;;;;;;;1.80;1.27;;;0.40;94.40;;;;;;4997253;28;20547;-86
2021/12/10 03:08:46;;;;;;;1.90;1.10;;;0.30;94.10;;;;;;4978669;28;20263;-87
2021/12/10 03:11:15;;;;;;;1.87;1.40;;;0.30;94.30;;;;;;4996897;28;20200;-87
2021/12/10 03:13:43;;;;;;;2.13;1.40;;;0.30;94.10;;;;;;4996358;28;20246;-88
2021/12/10 03:16:10;;;;;;;2.60;1.30;;;0.30;94.10;;;;;;4996767;28;20215;-87
2021/12/10 03:18:40;;;;;;;2.97;1.47;;;0.30;94.30;;;;;;4995490;28;20234;-88
2021/12/10 03:21:10;;;;;;;2.20;1.40;;;0.30;94.30;;;;;;4995829;28;20203;-88
2021/12/10 03:23:42;;;;;;;1.30;1.20;;;0.20;94.30;;;;;;4995647;28;20239;-88
2021/12/10 03:26:10;;;;;;;2.83;1.27;;;0.10;94.40;;;;;;4995872;28;20221;-88
2021/12/10 03:28:39;;;;;;;1.63;1.23;;;0.10;94.70;;;;;;4995819;28;20249;-87
2021/12/10 03:31:07;;;;;;;1.67;1.33;;;0.10;94.80;;;;;;4996323;28;20298;-88
2021/12/10 03:33:34;;;;;;;2.87;1.27;;;0.00;94.60;;;;;;4994718;28;20238;-87
2021/12/10 03:36:02;;;;;;;1.43;1.10;;;0.00;94.50;;;;;;4996511;28;20212;-87
2021/12/10 03:38:30;;;;;;;2.10;1.23;;;0.00;94.50;;;;;;5009245;28;20235;-87
2021/12/10 03:40:59;;;;;;;2.33;1.37;;;0.00;94.40;;;;;;5000948;28;20212;-88
2021/12/10 03:43:27;;;;;;;2.00;1.23;;;-0.10;94.20;;;;;;5004131;28;20297;-87
2021/12/10 03:45:59;;;;;;;2.90;1.50;;;-0.10;94.00;;;;;;4996239;28;20202;-87
2021/12/10 03:48:29;;;;;;;1.67;1.33;;;-0.10;94.00;;;;;;4996512;28;20230;-87
2021/12/10 03:50:57;;;;;;;2.93;1.70;;;-0.10;94.00;;;;;;4983294;28;20210;-88
2021/12/10 03:53:24;;;;;;;3.63;1.30;;;-0.10;94.00;;;;;;4995685;28;20227;-89
2021/12/10 03:55:57;;;;;;;3.03;1.20;;;-0.10;94.00;;;;;;4995987;28;20212;-88
2021/12/10 03:58:26;;;;;;;1.40;1.00;;;-0.10;94.00;;;;;;4996059;28;20243;-88
2021/12/10 04:00:55;;;;;;;2.13;1.23;;;-0.20;94.20;;;;;;4996723;28;20231;-87
2021/12/10 04:03:25;;;;;;;2.77;1.23;;;-0.30;94.40;;;;;;4979625;28;20229;-87
2021/12/10 04:05:53;;;;;;;2.23;1.27;;;-0.30;94.50;;;;;;5001643;28;20207;-92
2021/12/10 04:08:20;;;;;;;4.57;1.00;;;-0.30;94.40;;;;;;4984868;28;20588;-87
2021/12/10 04:10:49;;;;;;;2.77;1.20;;;-0.30;94.50;;;;;;4978714;28;20587;-88
2021/12/10 04:13:29;;;;;;;2.63;1.20;;;-0.40;94.70;;;;;;4978120;28;20229;-87
2021/12/10 04:15:57;;;;;;;1.53;1.20;;;-0.40;94.70;;;;;;4995775;28;20217;-87
2021/12/10 04:18:24;;;;;;;3.10;1.40;;;-0.40;94.70;;;;;;4995540;28;20240;-88
2021/12/10 04:20:51;;;;;;;3.67;1.17;;;-0.40;94.70;;;;;;4996381;28;20200;-89
2021/12/10 04:23:21;;;;;;;2.00;1.10;;;-0.50;94.70;;;;;;4980308;28;20363;-89
2021/12/10 04:25:49;;;;;;;3.40;1.30;;;-0.60;94.80;;;;;;4978455;28;20656;-87
2021/12/10 04:28:19;;;;;;;1.97;1.20;;;-0.60;95.00;;;;;;4995750;28;20714;-87
2021/12/10 04:30:48;;;;;;;1.80;1.30;;;-0.60;95.20;;;;;;4995594;28;20219;-88
2021/12/10 04:33:21;;;;;;;5.50;1.30;;;-0.70;95.30;;;;;;4977518;28;20231;-88
2021/12/10 04:35:48;;;;;;;1.93;1.10;;;-0.80;95.60;;;;;;4995572;28;20290;-88
2021/12/10 04:38:17;;;;;;;3.07;1.20;;;-0.70;95.50;;;;;;4994723;28;20232;-87
2021/12/10 04:40:47;;;;;;;3.03;1.30;;;-0.80;95.20;;;;;;4995363;28;20657;-88
2021/12/10 04:43:14;;;;;;;2.07;1.20;;;-0.80;95.60;;;;;;4979028;28;20231;-88
2021/12/10 04:45:41;;;;;;;1.30;1.20;;;-0.80;95.60;;;;;;4995914;28;20653;-87
2021/12/10 04:48:10;;;;;;;4.37;1.40;;;-0.70;95.40;;;;;;4995186;28;20228;-89
2021/12/10 04:50:37;;;;;;;2.87;1.33;;;-0.70;95.30;;;;;;4983127;28;20722;-87
2021/12/10 04:53:08;;;;;;;2.17;1.30;;;-0.70;95.00;;;;;;4997059;28;20216;-88
2021/12/10 04:55:36;;;;;;;2.77;1.13;;;-0.80;94.80;;;;;;4995331;28;20291;-89
2021/12/10 04:58:04;;;;;;;2.20;1.10;;;-0.70;94.80;;;;;;4978320;28;20709;-88
2021/12/10 05:00:35;;;;;;;4.17;1.13;;;-0.70;94.80;;;;;;4995776;28;20227;-88
2021/12/10 05:03:05;;;;;;;1.27;1.00;;;-0.70;94.70;;;;;;4994525;28;20225;-88
2021/12/10 05:05:35;;;;;;;2.17;1.10;;;-0.70;94.60;;;;;;4995264;28;20260;-88
2021/12/10 05:08:03;;;;;;;1.63;1.20;;;-0.70;94.60;;;;;;4993088;28;20624;-88
2021/12/10 05:10:30;;;;;;;3.20;1.27;;;-0.80;94.80;;;;;;4996634;28;20202;-89
2021/12/10 05:12:58;;;;;;;1.23;1.10;;;-0.80;94.50;;;;;;4994108;28;20551;-89
2021/12/10 05:15:27;;;;;;;3.03;1.40;;;-0.90;94.70;;;;;;4993718;28;20197;-89
2021/12/10 05:17:56;;;;;;;3.53;1.40;;;-0.90;94.50;;;;;;4993652;28;20236;-88
2021/12/10 05:20:29;;;;;;;2.37;1.30;;;-0.90;94.30;;;;;;4976580;28;20227;-88
2021/12/10 05:22:58;;;;;;;3.63;1.40;;;-0.80;93.90;;;;;;4992213;28;20313;-89
2021/12/10 05:25:26;;;;;;;2.20;1.30;;;-0.90;94.10;;;;;;4994045;28;20205;-89
2021/12/10 05:27:54;;;;;;;2.60;1.57;;;-0.80;93.80;;;;;;4993682;28;20236;-89
2021/12/10 05:30:24;;;;;;;3.60;1.50;;;-0.90;93.80;;;;;;4976597;28;20222;-89
2021/12/10 05:32:52;;;;;;;2.53;1.47;;;-1.00;94.10;;;;;;4975515;28;20239;-89
2021/12/10 05:35:19;;;;;;;2.97;1.23;;;-0.90;94.20;;;;;;4992642;28;20219;-88
2021/12/10 05:37:46;;;;;;;4.77;1.47;;;-0.90;94.10;;;;;;4992176;28;20235;-88
2021/12/10 05:40:16;;;;;;;4.03;1.60;;;-0.90;93.80;;;;;;4993319;28;20226;-88
2021/12/10 05:42:45;;;;;;;2.20;1.40;;;-1.00;93.80;;;;;;4994223;28;20227;-87
2021/12/10 05:45:13;;;;;;;2.70;1.30;;;-1.10;93.80;;;;;;4983678;28;20603;-88
2021/12/10 05:47:40;;;;;;;4.70;1.47;;;-1.10;94.30;;;;;;5002678;28;20231;-89
2021/12/10 05:50:10;;;;;;;3.70;1.40;;;-1.10;94.20;;;;;;4975752;28;20218;-88
2021/12/10 05:52:37;;;;;;;2.47;1.30;;;-1.20;93.90;;;;;;4981350;28;20230;-89
2021/12/10 05:55:06;;;;;;;3.73;1.43;;;-1.20;94.10;;;;;;4995998;28;20211;-89
2021/12/10 05:57:35;;;;;;;3.30;1.80;;;-1.20;94.10;;;;;;4995282;28;20305;-86
2021/12/10 06:00:03;;;;;;;3.00;1.67;;;-1.10;93.80;;;;;;4993534;28;20251;-86
2021/12/10 06:02:30;;;;;;;4.97;2.00;;;-1.20;93.80;;;;;;4993121;28;20312;-85
2021/12/10 06:04:58;;;;;;;3.17;2.00;;;-1.30;94.40;;;;;;4993383;28;20537;-86
2021/12/10 06:07:25;;;;;;;1.90;1.63;;;-1.20;94.40;;;;;;4992788;28;20224;-86
2021/12/10 06:09:52;;;;;;;2.43;1.70;;;-1.20;94.30;;;;;;4998786;28;20200;-86
2021/12/10 06:12:20;;;;;;;2.40;1.70;;;-1.30;94.30;;;;;;4992137;28;20730;-86
2021/12/10 06:14:48;;;;;;;3.43;2.00;;;-1.30;94.50;;;;;;4975574;28;20262;-84
2021/12/10 06:17:15;;;;;;;4.33;1.93;;;-1.30;94.50;;;;;;4969887;28;20233;-87
2021/12/10 06:19:42;;;;;;;3.53;2.03;;;-1.30;94.60;;;;;;5000250;28;20717;-88
2021/12/10 06:22:10;;;;;;;3.90;2.30;;;-1.40;95.00;;;;;;4993044;28;20234;-85
2021/12/10 06:24:37;;;;;;;5.53;2.40;;;-1.30;94.80;;;;;;4990475;28;20725;-85
2021/12/10 06:27:05;;;;;;;3.20;2.40;;;-1.30;94.70;;;;;;5005248;28;20250;-84
2021/12/10 06:29:32;;;;;;;4.57;2.50;;;-1.20;94.70;;;;;;5002939;28;20208;-84
2021/12/10 06:32:00;;;;;;;5.60;2.93;;;-1.20;94.40;;;;;;4996689;28;20200;-87
2021/12/10 06:34:30;;;;;;;4.50;2.80;;;-1.20;94.40;;;;;;5008049;28;20209;-87
2021/12/10 06:36:57;;;;;;;4.73;3.57;;;-1.30;94.70;;;;;;4998281;28;20595;-87
2021/12/10 06:39:24;;;;;;;5.23;3.83;;;-1.30;94.70;;;;;;4995069;28;20246;-83
2021/12/10 06:41:52;;;;;;;5.97;4.20;;;-1.40;95.00;;;;;;4998067;28;20208;-88
2021/12/10 06:44:20;;;;;;;8.23;4.53;;;-1.40;95.20;;;;;;4996851;28;20614;-88
2021/12/10 06:46:48;;;;;;;5.67;4.33;;;-1.30;95.20;;;;;;5003635;28;20206;-86
2021/12/10 06:49:18;;;;;;;6.13;4.00;;;-1.30;95.20;;;;;;4993531;28;20208;-86
2021/12/10 06:51:46;;;;;;;8.33;4.30;;;-1.30;95.20;;;;;;4995911;28;20207;-87
2021/12/10 06:54:14;;;;;;;8.53;4.37;;;-1.30;95.10;;;;;;5012825;28;20196;-87
2021/12/10 06:56:41;;;;;;;8.20;4.50;;;-1.30;95.50;;;;;;5004367;28;20206;-87
2021/12/10 06:59:11;;;;;;;6.90;5.20;;;-1.20;95.10;;;;;;5004789;28;20270;-86
2021/12/10 07:01:40;;;;;;;7.23;5.30;;;-1.20;95.10;;;;;;4996852;28;20207;-87
2021/12/10 07:04:11;;;;;;;7.10;4.70;;;-1.20;95.10;;;;;;4997621;28;20224;-85
2021/12/10 07:06:43;;;;;;;7.80;4.87;;;-1.20;95.10;;;;;;4999538;28;20204;-87
2021/12/10 07:09:14;;;;;;;6.77;5.10;;;-1.20;95.20;;;;;;4995780;28;20648;-87
2021/12/10 07:11:41;;;;;;;9.87;5.73;;;-1.20;95.20;;;;;;4997147;28;20250;-86
2021/12/10 07:14:08;;;;;;;9.93;5.83;;;-1.00;95.60;;;;;;4999676;28;20322;-88
2021/12/10 07:16:36;;;;;;;8.50;5.70;;;-0.90;95.40;;;;;;5003179;28;20200;-83
2021/12/10 07:19:05;;;;;;;8.87;6.50;;;-1.00;95.00;;;;;;4983157;28;20251;-84
2021/12/10 07:21:33;;;;;;;8.90;5.97;;;-1.00;94.80;;;;;;4981831;28;20207;-84
2021/12/10 07:24:06;;;;;;;8.87;6.07;;;-1.00;95.10;;;;;;4987782;28;20240;-84
2021/12/10 07:26:34;;;;;;;8.50;5.40;;;-1.00;94.80;;;;;;4997824;28;20204;-84
2021/12/10 07:29:03;;;;;;;8.13;6.27;;;-1.00;94.80;;;;;;4999096;28;20223;-84
2021/12/10 07:31:34;;;;;;;12.17;5.83;;;-0.90;94.50;;;;;;4998232;28;20199;-83
2021/12/10 07:34:03;;;;;;;7.77;5.33;;;-0.90;94.20;;;;;;4996586;28;20226;-84
2021/12/10 07:36:30;;;;;;;7.93;5.47;;;-0.90;93.80;;;;;;5002115;28;20670;-83
2021/12/10 07:38:58;;;;;;;8.97;6.07;;;-0.90;93.80;;;;;;4986811;28;20608;-83
2021/12/10 07:41:27;;;;;;;7.63;6.13;;;-0.90;94.10;;;;;;4998206;28;20323;-84
2021/12/10 07:43:54;;;;;;;7.33;5.47;;;-0.80;94.60;;;;;;4999365;28;20223;-85
2021/12/10 07:46:21;;;;;;;7.37;5.23;;;-0.80;94.10;;;;;;4986396;28;20549;-89
2021/12/10 07:48:49;;;;;;;8.63;5.87;;;-0.80;94.10;;;;;;4992668;28;20598;-83
2021/12/10 07:51:20;;;;;;;6.67;5.23;;;-0.70;93.90;;;;;;4999601;28;20287;-84
2021/12/10 07:53:47;;;;;;;8.17;5.57;;;-0.70;93.90;;;;;;5003872;28;20222;-82
2021/12/10 07:56:16;;;;;;;6.63;4.73;;;-0.70;93.30;;;;;;4992633;28;20208;-83
2021/12/10 07:58:44;;;;;;;7.40;5.17;;;-0.60;93.30;;;;;;4997439;28;20223;-83
2021/12/10 08:01:14;;;;;;;7.77;5.63;;;-0.50;93.10;;;;;;4983167;28;20236;-82
2021/12/10 08:03:41;;;;;;;6.27;4.93;;;-0.40;92.60;;;;;;4978390;28;20233;-81
2021/12/10 08:06:08;;;;;;;7.23;4.97;;;-0.20;91.80;;;;;;4981050;28;20204;-82
2021/12/10 08:08:35;;;;;;;8.37;5.03;;;-0.10;91.80;;;;;;4979953;28;20250;-84
2021/12/10 08:11:02;;;;;;;8.50;5.47;;;-0.10;91.60;;;;;;4984076;28;20206;-83
2021/12/10 08:13:29;;;;;;;7.03;4.70;;;-0.10;91.40;;;;;;4995611;28;20595;-82
2021/12/10 08:15:58;;;;;;;7.93;5.00;;;0.00;91.30;;;;;;5000871;28;20191;-83
2021/12/10 08:18:25;;;;;;;7.60;5.00;;;0.20;91.20;;;;;;4983715;28;20227;-82
2021/12/10 08:20:52;;;;;;;8.77;4.60;;;0.30;90.10;;;;;;4981601;28;20746;-87
2021/12/10 08:23:20;;;;;;;7.33;5.17;;;0.50;90.20;;;;;;4979982;28;20234;-83
2021/12/10 08:25:48;;;;;;;6.77;4.60;;;0.70;88.60;;;;;;4984266;28;20203;-83
2021/12/10 08:28:15;;;;;;;8.53;4.90;;;0.60;86.20;;;;;;4989129;28;20239;-84
2021/12/10 08:30:43;;;;;;;6.70;4.80;;;0.80;86.30;;;;;;4990321;28;20212;-82
2021/12/10 08:33:13;;;;;;;7.37;4.67;;;1.00;86.40;;;;;;4997024;28;20230;-81
2021/12/10 08:35:42;;;;;;;5.53;4.30;;;1.30;86.00;;;;;;4990835;28;20204;-81
2021/12/10 08:38:09;;;;;;;6.30;4.83;;;1.80;82.40;;;;;;4997225;28;20219;-84
2021/12/10 08:40:40;;;;;;;6.83;4.73;;;2.30;79.00;;;;;;4995521;28;20223;-81
2021/12/10 08:43:07;;;;;;;5.97;4.43;;;2.50;74.40;;;;;;5004165;28;20223;-85
2021/12/10 08:45:35;;;;;;;6.03;4.80;;;2.60;74.30;;;;;;4987570;28;20196;-83
2021/12/10 08:48:02;;;;;;;5.93;4.47;;;3.20;70.60;;;;;;4998493;28;20596;-84
2021/12/10 08:50:34;;;;;;;5.40;4.30;;;3.90;63.80;;;;;;4995441;28;20219;-87
2021/12/10 08:53:24;;;;;;;4.90;4.07;;;4.30;58.90;;;;;;4995678;28;20224;-87
2021/12/10 08:55:54;;;;;;;5.33;4.20;;;4.00;57.70;;;;;;4991289;28;20194;-84
2021/12/10 08:58:22;;;;;;;5.20;3.93;;;3.40;58.80;;;;;;5015291;28;20243;-83
2021/12/10 09:00:52;;;;;;;4.77;3.80;;;3.00;66.00;;;;;;5015509;28;20227;-83
2021/12/10 09:03:19;;;;;;;4.60;4.00;;;3.00;67.60;;;;;;5015984;28;20195;-83
2021/12/10 09:05:47;;;;;;;4.77;3.70;;;3.20;64.20;;;;;;5011227;28;20211;-83
2021/12/10 09:08:15;;;;;;;5.00;4.10;;;3.50;64.90;;;;;;5005248;28;20210;-82
2021/12/10 09:14:15;;;;;;;5.47;3.80;;;4.00;59.00;;;;;;4996589;28;20172;-85
2021/12/10 09:16:47;;;;;;;4.22;3.28;;;4.90;55.40;;;;;;4998202;28;20291;-85
2021/12/10 09:19:17;;;;;;;7.57;3.83;;;6.20;46.70;;;;;;4997795;28;20706;-85
2021/12/10 09:48:26;;;;;;;3.67;2.92;;;5.80;34.90;;;;;;5216423;23;20219;-84
2021/12/10 09:50:56;;;;;;;3.65;2.85;;;4.20;43.70;;;;;;5036729;28;20222;-83
2021/12/10 09:53:38;;;;;;;3.88;3.10;;;4.30;46.50;;;;;;5034590;28;20284;-86
2021/12/10 09:56:06;;;;;;;4.25;3.13;;;4.00;49.20;;;;;;5034171;28;20190;-84
2021/12/10 09:58:33;;;;;;;5.13;3.03;;;4.00;50.40;;;;;;5038689;28;20226;-85
2021/12/10 10:01:06;;;;;;;5.63;3.57;;;4.20;48.00;;;;;;5033809;28;20571;-84
2021/12/10 10:03:40;;;;;;;3.50;2.97;;;3.90;50.80;;;;;;5031679;28;20226;-85
2021/12/10 10:06:08;;;;;;;8.03;2.90;;;3.70;51.50;;;;;;5032368;28;20194;-83
2021/12/10 10:08:37;;;;;;;3.33;2.67;;;3.40;55.70;;;;;;5029866;28;20233;-82
2021/12/10 10:11:07;;;;;;;4.70;3.37;;;3.10;56.80;;;;;;5031573;28;20636;-83
2021/12/10 10:13:37;;;;;;;4.20;2.77;;;2.90;61.50;;;;;;5030801;28;20226;-84
2021/12/10 10:16:05;;;;;;;3.87;2.93;;;3.00;62.00;;;;;;5030902;28;20646;-82
2021/12/10 10:18:35;;;;;;;4.30;3.03;;;2.70;62.90;;;;;;5030645;28;20230;-82
2021/12/10 10:21:09;;;;;;;3.43;2.77;;;2.80;62.30;;;;;;5030767;28;20723;-82
2021/12/10 10:23:37;;;;;;;3.80;3.00;;;3.00;63.30;;;;;;5030723;28;20233;-83
2021/12/10 10:26:07;;;;;;;2.83;2.50;;;3.10;59.60;;;;;;5030031;28;20285;-79
2021/12/10 10:28:34;;;;;;;3.43;2.40;;;2.90;57.60;;;;;;5031738;28;20241;-80
2021/12/10 10:31:05;;;;;;;4.10;2.83;;;2.50;60.30;;;;;;5030027;28;20213;-89
2021/12/10 10:33:35;;;;;;;4.83;2.90;;;2.60;63.60;;;;;;5023939;28;20233;-84
2021/12/10 10:36:08;;;;;;;4.73;2.93;;;2.70;62.40;;;;;;5030013;28;20210;-82
2021/12/10 10:38:35;;;;;;;6.20;3.20;;;2.40;65.50;;;;;;5012837;28;20280;-83
2021/12/10 10:41:14;;;;;;;5.87;3.20;;;2.70;67.30;;;;;;5030069;28;20264;-79
2021/12/10 10:43:41;;;;;;;4.93;2.80;;;2.70;67.30;;;;;;5029481;28;20226;-81
2021/12/10 10:46:08;;;;;;;4.33;2.87;;;2.70;67.30;;;;;;5028794;28;20198;-80
2021/12/10 10:48:41;;;;;;;3.90;2.97;;;2.60;67.20;;;;;;5034334;28;20220;-80
2021/12/10 10:51:11;;;;;;;3.03;2.73;;;2.70;67.40;;;;;;5027522;28;20579;-81
2021/12/10 10:53:44;;;;;;;3.93;2.60;;;2.30;66.90;;;;;;5030405;28;20301;-82
2021/12/10 10:56:14;;;;;;;2.70;2.40;;;2.60;67.20;;;;;;5028632;28;20206;-82
2021/12/10 10:58:44;;;;;;;3.57;2.83;;;2.90;69.00;;;;;;5008908;28;20296;-88
2021/12/10 11:01:23;;;;;;;5.03;3.10;;;3.10;66.60;;;;;;5031307;28;20211;-87
2021/12/10 11:03:58;;;;;;;4.30;2.90;;;3.00;63.90;;;;;;5031199;28;20268;-81
2021/12/10 11:06:28;;;;;;;3.97;3.43;;;2.90;66.10;;;;;;5030574;28;20186;-83
2021/12/10 11:09:04;;;;;;;3.57;3.10;;;3.10;67.80;;;;;;5026554;28;20232;-85
2021/12/10 11:11:36;;;;;;;4.77;3.60;;;3.20;64.70;;;;;;5028670;28;20619;-85
2021/12/10 11:14:06;;;;;;;4.10;2.97;;;3.40;61.50;;;;;;5028835;28;20745;-84
2021/12/10 11:16:36;;;;;;;3.63;2.73;;;3.50;60.50;;;;;;5028122;28;20282;-84
2021/12/10 11:19:08;;;;;;;5.43;3.03;;;3.50;59.70;;;;;;5034144;28;20225;-86
2021/12/10 11:21:39;;;;;;;4.00;3.07;;;3.80;60.10;;;;;;5035320;28;20217;-88
2021/12/10 11:24:17;;;;;;;3.40;2.97;;;3.60;60.00;;;;;;5031424;28;20218;-85
2021/12/10 11:26:50;;;;;;;3.73;3.17;;;3.70;59.00;;;;;;5024223;28;20191;-85
2021/12/10 11:29:37;;;;;;;5.00;4.00;;;3.80;57.60;;;;;;5032008;28;20262;-82
2021/12/10 11:32:09;;;;;;;5.33;4.10;;;3.50;60.60;;;;;;5006858;28;20190;-86
2021/12/10 11:34:55;;;;;;;5.67;3.47;;;3.70;62.30;;;;;;5030960;28;20990;-84
2021/12/10 11:37:54;;;;;;;6.07;3.70;;;3.50;62.40;;;;;;5034055;28;20238;-86
2021/12/10 11:40:53;;;;;;;6.40;3.70;;;3.40;59.90;;;;;;5030656;28;20234;-84
2021/12/10 11:43:52;;;;;;;4.33;3.70;;;3.50;60.40;;;;;;5025942;28;20697;-88
2021/12/10 11:49:21;;;;;;;3.10;2.73;;;3.60;61.30;;;;;;5028227;28;20281;-84
2021/12/10 11:51:56;;;;;;;7.77;3.27;;;3.60;59.30;;;;;;5031551;28;20649;-85
2021/12/10 11:54:28;;;;;;;4.37;3.30;;;3.40;61.30;;;;;;5020581;28;20222;-87
2021/12/10 11:56:58;;;;;;;4.50;3.70;;;3.50;62.30;;;;;;5032977;28;20201;-86
2021/12/10 11:59:28;;;;;;;5.33;3.60;;;3.60;61.00;;;;;;5035294;28;20194;-84
2021/12/10 12:01:58;;;;;;;6.30;3.50;;;3.70;60.50;;;;;;5016415;28;20848;-84
2021/12/10 12:04:33;;;;;;;3.77;3.20;;;3.80;60.60;;;;;;5036218;28;20198;-84
2021/12/10 12:13:54;;;;;;;7.67;3.40;;;4.00;61.30;;;;;;5036871;28;20229;-83
2021/12/10 12:16:24;;;;;;;6.53;3.30;;;3.80;61.30;;;;;;5029851;28;20658;-83
2021/12/10 12:18:53;;;;;;;6.27;3.30;;;3.90;61.10;;;;;;5024846;28;20310;-85
2021/12/10 12:27:15;;;;;;;5.80;3.60;;;3.90;62.70;;;;;;5042422;28;20204;-83
2021/12/10 12:29:49;;;;;;;5.30;3.63;;;3.90;61.00;;;;;;5040407;28;20187;-82
2021/12/10 12:32:20;;;;;;;3.73;3.17;;;3.80;60.80;;;;;;5034639;28;20230;-83
2021/12/10 12:34:50;;;;;;;6.80;4.90;;;3.80;62.00;;;;;;5022884;28;20269;-86
2021/12/10 12:37:21;;;;;;;5.27;3.83;;;4.00;61.30;;;;;;5025062;28;20583;-84
2021/12/10 12:39:50;;;;;;;5.40;3.80;;;4.20;61.90;;;;;;5010986;28;20195;-86
2021/12/10 12:42:25;;;;;;;6.00;3.40;;;4.10;62.60;;;;;;5037983;28;20240;-83
2021/12/10 12:44:56;;;;;;;3.77;3.03;;;4.20;65.70;;;;;;5041948;28;20240;-84
2021/12/10 12:47:27;;;;;;;5.90;3.20;;;4.40;65.60;;;;;;5031765;28;20227;-84
2021/12/10 12:50:07;;;;;;;5.67;3.17;;;4.30;64.50;;;;;;5030614;28;20205;-90
2021/12/10 12:52:46;;;;;;;4.60;3.30;;;4.40;60.90;;;;;;5031393;28;20221;-89
2021/12/10 12:55:34;;;;;;;4.53;3.03;;;4.60;60.70;;;;;;5030058;28;20240;-87
2021/12/10 12:58:13;;;;;;;4.17;3.10;;;4.60;59.50;;;;;;5027561;28;20233;-85
2021/12/10 13:00:48;;;;;;;3.77;3.10;;;4.40;60.80;;;;;;5035789;28;20201;-86
2021/12/10 13:03:18;;;;;;;6.07;2.70;;;4.10;64.90;;;;;;5044211;28;20225;-89
2021/12/10 13:05:50;;;;;;;4.97;3.20;;;4.10;63.80;;;;;;5042199;28;20202;-87
2021/12/10 13:08:23;;;;;;;4.30;3.20;;;4.10;66.20;;;;;;5030708;28;20297;-88
2021/12/10 13:11:31;;;;;;;3.37;2.80;;;4.30;63.80;;;;;;5029059;28;20187;-86
2021/12/10 13:14:12;;;;;;;4.60;3.33;;;4.40;63.30;;;;;;5019830;28;20225;-87
2021/12/10 13:16:45;;;;;;;7.53;3.03;;;4.40;65.60;;;;;;5031302;28;20646;-86
2021/12/10 13:19:16;;;;;;;5.63;2.87;;;4.50;66.70;;;;;;5030891;28;20237;-86
2021/12/10 13:21:46;;;;;;;5.53;3.10;;;4.50;65.10;;;;;;5040154;28;20222;-87
2021/12/10 13:24:15;;;;;;;4.03;3.17;;;4.40;65.00;;;;;;5022403;28;20226;-87
2021/12/10 13:26:43;;;;;;;5.03;3.70;;;4.40;65.20;;;;;;5030961;28;20547;-87
2021/12/10 13:29:10;;;;;;;3.97;3.00;;;4.20;66.90;;;;;;5030033;28;20228;-87
2021/12/10 13:31:39;;;;;;;4.20;3.00;;;4.30;69.00;;;;;;5014392;28;20199;-87
2021/12/10 13:34:09;;;;;;;3.40;2.70;;;4.30;63.60;;;;;;5028735;28;20228;-86
2021/12/10 13:36:36;;;;;;;5.77;2.97;;;4.10;66.70;;;;;;5031938;28;20197;-87
2021/12/10 13:39:06;;;;;;;6.20;3.17;;;4.10;68.80;;;;;;5029796;28;20214;-86
2021/12/10 13:41:34;;;;;;;4.63;3.43;;;4.20;68.90;;;;;;5028804;28;20225;-87
2021/12/10 13:44:08;;;;;;;6.60;3.80;;;4.10;68.80;;;;;;5030593;28;20496;-87
2021/12/10 13:46:45;;;;;;;7.40;3.00;;;3.90;70.80;;;;;;5027864;28;20236;-90
2021/12/10 13:49:19;;;;;;;7.20;3.20;;;3.80;73.20;;;;;;5008503;28;20235;-87
2021/12/10 13:51:50;;;;;;;4.43;3.10;;;3.80;73.30;;;;;;5027257;28;20650;-88
2021/12/10 13:54:22;;;;;;;7.80;3.13;;;3.80;75.00;;;;;;5011461;28;20236;-87
2021/12/10 13:56:53;;;;;;;7.23;2.93;;;3.90;68.60;;;;;;5020439;28;20720;-87
2021/12/10 13:59:25;;;;;;;10.03;3.00;;;3.80;68.50;;;;;;5031096;28;20585;-86
2021/12/10 14:01:56;;;;;;;4.63;2.53;;;3.80;70.90;;;;;;5030268;28;20562;-86
2021/12/10 14:04:27;;;;;;;5.50;2.53;;;3.70;68.40;;;;;;5032109;28;20198;-85
2021/12/10 14:07:05;;;;;;;7.03;2.83;;;3.90;68.60;;;;;;5030062;28;20646;-88
2021/12/10 14:09:41;;;;;;;6.07;2.30;;;4.00;65.80;;;;;;5027592;28;20202;-86
2021/12/10 14:12:26;;;;;;;4.33;2.83;;;4.00;63.60;;;;;;5029347;28;20237;-83
2021/12/10 14:15:01;;;;;;;7.00;2.60;;;3.90;68.50;;;;;;5028632;28;20253;-84
2021/12/10 14:17:32;;;;;;;3.37;2.50;;;3.70;68.40;;;;;;5032363;28;20263;-88
2021/12/10 14:20:16;;;;;;;8.23;2.83;;;3.60;66.80;;;;;;5028194;28;20202;-89
2021/12/10 14:22:50;;;;;;;5.27;2.37;;;3.30;68.00;;;;;;5032445;28;20222;-86
2021/12/10 14:25:24;;;;;;;4.50;2.23;;;3.50;68.10;;;;;;5030439;28;20194;-87
2021/12/10 14:27:56;;;;;;;2.40;2.20;;;3.60;65.20;;;;;;5027798;28;20245;-87
2021/12/10 14:30:28;;;;;;;9.17;2.30;;;3.80;63.60;;;;;;5033482;28;20191;-84
2021/12/10 14:33:08;;;;;;;3.43;2.50;;;3.70;60.70;;;;;;5032919;28;20237;-85
2021/12/10 14:35:49;;;;;;;12.00;2.70;;;3.60;61.40;;;;;;5031843;28;20209;-86
2021/12/10 14:38:16;;;;;;;3.47;2.23;;;3.50;61.60;;;;;;5030831;28;20218;-85
2021/12/10 14:40:51;;;;;;;4.77;2.30;;;3.50;66.10;;;;;;5030356;28;20214;-85
2021/12/10 14:43:27;;;;;;;3.03;2.50;;;3.60;64.40;;;;;;5021768;28;20234;-83
2021/12/10 14:46:15;;;;;;;4.37;2.50;;;3.60;64.00;;;;;;5033887;28;20205;-86
2021/12/10 14:49:20;;;;;;;5.03;2.47;;;3.70;63.50;;;;;;5037383;28;20238;-85
2021/12/10 14:55:07;;;;;;;4.80;2.60;;;3.50;66.40;;;;;;5036430;28;20302;-85
2021/12/10 14:57:50;;;;;;;4.50;2.43;;;3.60;65.30;;;;;;5037345;28;20304;-89
2021/12/10 15:00:35;;;;;;;4.53;2.70;;;3.50;66.40;;;;;;5055513;28;20270;-86
2021/12/10 15:03:06;;;;;;;5.97;2.90;;;3.60;64.50;;;;;;5019665;28;20333;-88
2021/12/10 15:05:38;;;;;;;5.23;2.77;;;3.50;66.40;;;;;;5030470;28;20518;-86
2021/12/10 15:08:12;;;;;;;4.73;2.50;;;3.50;67.20;;;;;;5026345;28;20242;-86
2021/12/10 15:10:44;;;;;;;4.10;2.63;;;3.50;64.90;;;;;;5033082;28;20195;-87
2021/12/10 15:13:21;;;;;;;2.93;2.40;;;3.40;66.80;;;;;;5029395;28;20258;-88
2021/12/10 15:15:57;;;;;;;3.43;2.47;;;3.40;68.10;;;;;;5032760;28;20206;-86
2021/12/10 15:18:35;;;;;;;3.03;2.27;;;3.30;68.00;;;;;;5033439;28;20226;-83
2021/12/10 15:21:11;;;;;;;5.00;2.77;;;3.20;73.20;;;;;;5029793;28;20212;-83
2021/12/10 15:23:41;;;;;;;3.33;2.50;;;3.10;78.30;;;;;;5028230;28;20309;-82
2021/12/10 15:26:09;;;;;;;4.50;2.40;;;3.10;81.80;;;;;;5033602;28;20201;-83
2021/12/10 15:28:37;;;;;;;5.47;3.70;;;3.10;84.20;;;;;;5008000;28;20339;-84
2021/12/10 15:31:07;;;;;;;2.70;2.40;;;3.00;87.70;;;;;;5029729;28;20759;-82
2021/12/10 15:33:34;;;;;;;2.67;2.43;;;2.80;90.00;;;;;;5027944;28;20222;-83
2021/12/10 15:36:05;;;;;;;4.33;2.73;;;2.80;90.80;;;;;;5029966;28;20203;-86
2021/12/10 15:38:36;;;;;;;3.17;2.30;;;2.80;90.90;;;;;;5028984;28;20315;-82
2021/12/10 15:41:11;;;;;;;2.70;2.23;;;2.80;91.60;;;;;;5033629;28;20202;-83
2021/12/10 15:43:50;;;;;;;3.83;2.63;;;2.80;92.20;;;;;;5034689;28;20226;-83
2021/12/10 15:46:20;;;;;;;3.67;2.80;;;2.80;92.20;;;;;;5032832;28;20195;-83
2021/12/10 15:48:50;;;;;;;3.63;2.73;;;2.80;92.30;;;;;;5031915;28;20229;-83
2021/12/10 15:51:22;;;;;;;3.37;2.50;;;2.70;92.90;;;;;;5033301;28;20203;-85
2021/12/10 15:53:53;;;;;;;4.63;2.63;;;2.80;93.20;;;;;;5027025;28;20223;-82
2021/12/10 15:56:24;;;;;;;3.37;2.70;;;2.80;93.40;;;;;;5033938;28;20199;-82
2021/12/10 15:58:51;;;;;;;3.97;2.93;;;2.90;93.50;;;;;;5032261;28;20223;-83
2021/12/10 16:01:26;;;;;;;4.17;3.00;;;2.80;93.60;;;;;;5033047;28;20206;-83
2021/12/10 16:03:56;;;;;;;5.03;3.23;;;2.60;93.80;;;;;;5030788;28;20229;-84
2021/12/10 16:06:23;;;;;;;4.60;3.63;;;2.40;94.50;;;;;;5024747;28;20199;-86
2021/12/10 16:08:53;;;;;;;3.77;3.20;;;2.40;95.00;;;;;;5032150;28;20245;-82
2021/12/10 16:11:24;;;;;;;4.27;2.70;;;2.40;95.60;;;;;;5025981;28;20230;-81
2021/12/10 16:13:53;;;;;;;4.00;2.70;;;2.50;96.20;;;;;;5028557;28;20223;-84
2021/12/10 16:16:24;;;;;;;4.87;2.90;;;2.60;96.10;;;;;;5030647;28;20213;-84
2021/12/10 16:18:55;;;;;;;2.90;2.60;;;2.60;95.90;;;;;;5031563;28;20229;-83
2021/12/10 16:21:29;;;;;;;4.93;3.17;;;2.50;96.10;;;;;;5030953;28;20550;-83
2021/12/10 16:24:06;;;;;;;5.57;3.03;;;2.50;96.50;;;;;;5029141;28;20812;-84
2021/12/10 16:26:41;;;;;;;3.83;3.10;;;2.60;96.70;;;;;;5031530;28;20658;-83
2021/12/10 16:29:15;;;;;;;7.63;3.97;;;2.70;96.80;;;;;;5026097;28;20221;-84